createdAt,value
2018-12-29T00:02:22.657Z,22.03
2018-12-29T00:04:51.877Z,22.70
2018-12-29T00:07:20.756Z,22.67
2018-12-29T00:09:49.717Z,23.07
2018-12-29T00:12:18.655Z,21.83
2018-12-29T00:14:54.812Z,22.67
2018-12-29T00:17:18.202Z,24.30
2018-12-29T00:19:47.153Z,23.17
2018-12-29T00:22:16.369Z,24.13
2018-12-29T00:24:45.294Z,23.80
2018-12-29T00:27:14.285Z,25.00
2018-12-29T00:29:43.578Z,23.80
2018-12-29T00:32:13.055Z,23.87
2018-12-29T00:34:41.995Z,24.67
2018-12-29T00:37:10.935Z,25.13
2018-12-29T00:39:39.861Z,22.87
2018-12-29T00:42:09.045Z,23.43
2018-12-29T00:44:38.770Z,23.43
2018-12-29T00:47:07.801Z,23.27
2018-12-29T00:49:36.725Z,22.37
2018-12-29T00:52:05.629Z,22.17
2018-12-29T00:54:34.581Z,19.50
2018-12-29T00:57:03.515Z,21.03
2018-12-29T00:59:32.701Z,20.43
2018-12-29T01:02:01.655Z,20.80
2018-12-29T01:04:30.565Z,21.33
2018-12-29T01:06:59.438Z,20.43
2018-12-29T01:09:28.426Z,20.97
2018-12-29T01:11:57.361Z,20.37
2018-12-29T01:14:26.378Z,21.50
2018-12-29T01:16:55.351Z,20.53
2018-12-29T01:19:24.297Z,21.03
2018-12-29T01:21:53.243Z,18.83
2018-12-29T01:24:22.165Z,20.53
2018-12-29T01:26:51.111Z,20.37
2018-12-29T01:29:20.068Z,20.97
2018-12-29T01:31:49.095Z,19.93
2018-12-29T01:34:18.053Z,20.10
2018-12-29T01:36:47.054Z,20.83
2018-12-29T01:39:15.966Z,21.23
2018-12-29T01:41:44.808Z,21.20
2018-12-29T01:44:16.596Z,22.17
2018-12-29T01:46:45.528Z,21.80
2018-12-29T01:49:14.515Z,22.27
2018-12-29T01:51:43.509Z,21.70
2018-12-29T01:54:12.509Z,22.00
2018-12-29T01:56:41.763Z,22.60
2018-12-29T01:59:11.026Z,23.17
2018-12-29T02:01:39.938Z,22.50
2018-12-29T02:04:08.838Z,22.97
2018-12-29T02:06:37.809Z,23.97
2018-12-29T02:09:07.066Z,23.33
2018-12-29T02:11:35.977Z,22.67
2018-12-29T02:14:05.213Z,23.13
2018-12-29T02:16:34.409Z,22.73
2018-12-29T02:19:03.365Z,22.80
2018-12-29T02:21:32.293Z,22.93
2018-12-29T02:24:01.247Z,23.07
2018-12-29T02:26:30.377Z,23.73
2018-12-29T02:28:59.414Z,22.43
2018-12-29T02:31:28.412Z,24.53
2018-12-29T02:33:57.485Z,23.90
2018-12-29T02:36:26.788Z,24.43
2018-12-29T02:38:55.779Z,25.07
2018-12-29T02:41:25.367Z,24.83
2018-12-29T02:43:54.409Z,23.63
2018-12-29T02:46:23.361Z,24.07
2018-12-29T02:48:52.519Z,24.40
2018-12-29T02:51:21.739Z,24.70
2018-12-29T02:53:50.691Z,24.53
2018-12-29T02:56:19.616Z,22.80
2018-12-29T02:58:48.537Z,23.47
2018-12-29T03:01:17.486Z,24.00
2018-12-29T03:03:46.441Z,22.03
2018-12-29T03:06:15.296Z,23.97
2018-12-29T03:08:44.228Z,24.00
2018-12-29T03:11:13.451Z,22.33
2018-12-29T03:13:42.394Z,24.00
2018-12-29T03:16:11.623Z,22.20
2018-12-29T03:18:40.620Z,22.77
2018-12-29T03:21:09.629Z,24.30
2018-12-29T03:23:38.615Z,21.90
2018-12-29T03:26:07.572Z,22.53
2018-12-29T03:28:36.507Z,20.90
2018-12-29T03:31:05.580Z,22.70
2018-12-29T03:33:34.539Z,22.47
2018-12-29T03:36:03.513Z,22.10
2018-12-29T03:38:32.437Z,21.87
2018-12-29T03:41:01.378Z,22.30
2018-12-29T03:43:30.390Z,20.90
2018-12-29T03:45:59.661Z,22.77
2018-12-29T03:48:29.115Z,21.80
2018-12-29T03:50:58.131Z,22.00
2018-12-29T03:53:27.222Z,24.27
2018-12-29T03:55:56.182Z,22.93
2018-12-29T03:58:25.119Z,22.33
2018-12-29T04:00:54.055Z,22.07
2018-12-29T04:03:23.352Z,21.93
2018-12-29T04:05:52.325Z,22.07
2018-12-29T04:08:21.250Z,20.83
2018-12-29T04:10:50.309Z,22.23
2018-12-29T04:13:19.617Z,21.53
2018-12-29T04:15:48.477Z,22.40
2018-12-29T04:18:17.770Z,22.60
2018-12-29T04:20:48.983Z,22.37
2018-12-29T04:23:20.310Z,23.33
2018-12-29T04:25:49.531Z,22.40
2018-12-29T04:28:18.478Z,23.00
2018-12-29T04:30:47.394Z,23.00
2018-12-29T04:33:16.399Z,23.70
2018-12-29T04:35:45.334Z,22.83
2018-12-29T04:38:18.835Z,23.97
2018-12-29T04:40:47.758Z,22.77
2018-12-29T04:43:16.731Z,23.33
2018-12-29T04:45:45.658Z,23.40
2018-12-29T04:48:14.635Z,23.93
2018-12-29T04:50:43.644Z,23.97
2018-12-29T04:53:12.591Z,23.70
2018-12-29T04:55:41.551Z,23.63
2018-12-29T04:58:10.490Z,22.83
2018-12-29T05:00:39.428Z,23.83
2018-12-29T05:03:08.589Z,22.43
2018-12-29T05:05:37.513Z,23.40
2018-12-29T05:08:06.442Z,23.17
2018-12-29T05:10:35.347Z,22.30
2018-12-29T05:13:04.287Z,23.27
2018-12-29T05:15:33.126Z,24.27
2018-12-29T05:18:02.870Z,22.80
2018-12-29T05:20:31.790Z,23.90
2018-12-29T05:23:00.670Z,24.73
2018-12-29T05:25:29.895Z,23.23
2018-12-29T05:27:58.842Z,24.53
2018-12-29T05:30:27.757Z,25.27
2018-12-29T05:32:56.777Z,24.93
2018-12-29T05:35:25.706Z,24.57
2018-12-29T05:37:54.665Z,23.40
2018-12-29T05:40:23.669Z,22.83
2018-12-29T05:42:52.633Z,24.83
2018-12-29T05:45:21.587Z,24.27
2018-12-29T05:47:50.810Z,25.40
2018-12-29T05:50:19.784Z,23.83
2018-12-29T05:52:49.023Z,23.60
2018-12-29T05:55:18.011Z,24.30
2018-12-29T05:57:46.943Z,25.07
2018-12-29T06:00:15.894Z,24.70
2018-12-29T06:02:44.786Z,26.00
2018-12-29T06:05:13.722Z,25.57
2018-12-29T06:07:42.656Z,24.77
2018-12-29T06:10:11.603Z,25.57
2018-12-29T06:12:40.545Z,22.87
2018-12-29T06:15:09.882Z,24.03
2018-12-29T06:17:38.804Z,23.40
2018-12-29T06:20:07.850Z,24.33
2018-12-29T06:22:36.851Z,24.93
2018-12-29T06:25:06.022Z,23.70
2018-12-29T06:27:35.008Z,25.17
2018-12-29T06:30:04.128Z,24.37
2018-12-29T06:32:33.081Z,26.33
2018-12-29T06:35:02.018Z,25.73
2018-12-29T06:37:30.957Z,26.37
2018-12-29T06:39:59.932Z,24.87
2018-12-29T06:42:28.878Z,26.30
2018-12-29T06:44:57.806Z,25.40
2018-12-29T06:47:27.816Z,24.97
2018-12-29T06:49:56.732Z,24.23
2018-12-29T06:52:25.944Z,25.50
2018-12-29T06:54:55.154Z,25.23
2018-12-29T06:57:24.134Z,25.67
2018-12-29T06:59:53.058Z,25.67
2018-12-29T07:02:22.051Z,23.33
2018-12-29T07:04:50.962Z,24.97
2018-12-29T07:07:19.838Z,26.17
2018-12-29T07:09:48.761Z,25.83
2018-12-29T07:12:17.710Z,26.30
2018-12-29T07:14:46.657Z,24.73
2018-12-29T07:17:15.872Z,25.73
2018-12-29T07:19:44.857Z,25.67
2018-12-29T07:22:13.783Z,26.17
2018-12-29T07:24:42.773Z,25.23
2018-12-29T07:27:11.714Z,25.57
2018-12-29T07:29:40.637Z,26.13
2018-12-29T07:32:09.491Z,25.53
2018-12-29T07:34:38.401Z,26.67
2018-12-29T07:37:07.652Z,26.97
2018-12-29T07:39:36.582Z,25.37
2018-12-29T07:42:05.441Z,27.57
2018-12-29T07:44:34.702Z,25.93
2018-12-29T07:47:03.728Z,27.07
2018-12-29T07:49:32.659Z,26.60
2018-12-29T07:52:01.582Z,27.13
2018-12-29T07:54:30.534Z,27.90
2018-12-29T07:56:59.469Z,26.63
2018-12-29T07:59:28.331Z,25.47
2018-12-29T08:01:59.610Z,25.03
2018-12-29T08:04:29.046Z,24.33
2018-12-29T08:06:57.998Z,23.70
2018-12-29T08:09:27.014Z,22.57
2018-12-29T08:11:55.973Z,21.73
2018-12-29T08:14:24.927Z,23.53
2018-12-29T08:16:56.974Z,22.10
2018-12-29T08:19:24.563Z,23.20
2018-12-29T08:21:54.741Z,21.87
2018-12-29T08:24:24.035Z,23.63
2018-12-29T08:26:52.962Z,21.53
2018-12-29T08:29:22.467Z,23.27
2018-12-29T08:31:51.384Z,23.30
2018-12-29T08:34:20.342Z,22.60
2018-12-29T08:36:49.378Z,21.97
2018-12-29T08:39:19.059Z,23.33
2018-12-29T08:41:49.258Z,22.37
2018-12-29T08:44:18.199Z,24.13
2018-12-29T08:46:47.133Z,24.07
2018-12-29T08:49:16.388Z,22.43
2018-12-29T08:51:45.370Z,22.87
2018-12-29T08:54:14.422Z,23.40
2018-12-29T08:56:46.209Z,22.97
2018-12-29T08:59:15.272Z,23.70
2018-12-29T09:01:44.525Z,23.77
2018-12-29T09:04:13.535Z,23.87
2018-12-29T09:06:42.484Z,24.50
2018-12-29T09:09:11.519Z,24.47
2018-12-29T09:11:40.965Z,24.30
2018-12-29T09:14:09.905Z,23.97
2018-12-29T09:16:38.885Z,24.70
2018-12-29T09:19:07.894Z,25.73
2018-12-29T09:21:36.847Z,26.07
2018-12-29T09:24:05.858Z,23.00
2018-12-29T09:26:42.768Z,25.07
2018-12-29T09:29:11.729Z,24.70
2018-12-29T09:31:40.665Z,25.47
2018-12-29T09:34:09.594Z,24.67
2018-12-29T09:36:38.550Z,25.90
2018-12-29T09:39:08.020Z,24.60
2018-12-29T09:41:36.983Z,24.57
2018-12-29T09:44:06.293Z,24.37
2018-12-29T09:46:35.322Z,24.33
2018-12-29T09:49:04.262Z,24.43
2018-12-29T09:51:33.247Z,25.30
2018-12-29T09:54:02.213Z,23.77
2018-12-29T09:56:31.169Z,25.43
2018-12-29T09:59:00.224Z,24.47
2018-12-29T10:01:29.252Z,24.10
2018-12-29T10:03:58.181Z,23.27
2018-12-29T10:06:27.033Z,24.53
2018-12-29T10:08:55.898Z,23.63
2018-12-29T10:11:24.825Z,22.40
2018-12-29T10:13:53.710Z,22.90
2018-12-29T10:16:22.648Z,23.67
2018-12-29T10:18:54.731Z,23.60
2018-12-29T10:21:23.676Z,24.07
2018-12-29T10:23:52.637Z,22.97
2018-12-29T10:26:21.641Z,22.80
2018-12-29T10:28:51.314Z,23.87
2018-12-29T10:31:20.213Z,23.13
2018-12-29T10:33:49.163Z,22.07
2018-12-29T10:36:18.247Z,22.23
2018-12-29T10:38:47.253Z,21.47
2018-12-29T10:41:16.397Z,20.47
2018-12-29T10:43:45.385Z,19.83
2018-12-29T10:46:14.400Z,20.40
2018-12-29T10:48:43.358Z,21.40
2018-12-29T10:51:12.283Z,22.60
2018-12-29T10:53:41.286Z,23.27
2018-12-29T10:56:10.152Z,19.87
2018-12-29T10:58:39.426Z,20.10
2018-12-29T11:01:08.355Z,18.90
2018-12-29T11:03:37.298Z,19.90
2018-12-29T11:06:06.414Z,20.13
2018-12-29T11:08:35.408Z,17.77
2018-12-29T11:11:04.370Z,18.63
2018-12-29T11:13:33.298Z,18.50
2018-12-29T11:16:02.312Z,21.17
2018-12-29T11:18:31.286Z,18.53
2018-12-29T11:21:00.226Z,19.87
2018-12-29T11:23:29.409Z,18.27
2018-12-29T11:25:58.357Z,25.03
2018-12-29T11:28:27.283Z,20.50
2018-12-29T11:30:56.260Z,21.23
2018-12-29T11:33:25.197Z,27.20
2018-12-29T11:35:54.165Z,19.70
2018-12-29T11:38:23.134Z,16.93
2018-12-29T11:40:52.124Z,18.37
2018-12-29T11:43:21.068Z,19.23
2018-12-29T11:45:50.038Z,18.30
2018-12-29T11:48:18.994Z,18.90
2018-12-29T11:50:48.221Z,18.70
2018-12-29T11:53:17.222Z,18.07
2018-12-29T11:55:46.578Z,19.13
2018-12-29T11:58:15.787Z,26.77
2018-12-29T12:00:45.155Z,71.53
2018-12-29T12:03:14.104Z,18.00
2018-12-29T12:05:43.047Z,20.47
2018-12-29T12:08:14.293Z,18.17
2018-12-29T12:10:43.483Z,17.77
2018-12-29T12:13:13.468Z,18.23
2018-12-29T12:15:42.598Z,18.30
2018-12-29T12:18:11.779Z,18.43
2018-12-29T12:20:40.731Z,18.63
2018-12-29T12:23:10.112Z,17.93
2018-12-29T12:25:39.146Z,16.87
2018-12-29T12:28:08.948Z,17.93
2018-12-29T12:30:37.901Z,18.07
2018-12-29T12:33:08.004Z,18.47
2018-12-29T12:35:37.018Z,17.43
2018-12-29T12:38:06.785Z,16.80
2018-12-29T12:40:35.750Z,17.33
2018-12-29T12:43:04.827Z,21.30
2018-12-29T12:45:34.198Z,19.87
2018-12-29T12:48:05.409Z,16.37
2018-12-29T12:50:33.822Z,16.17
2018-12-29T12:53:03.115Z,15.67
2018-12-29T12:55:32.819Z,16.17
2018-12-29T12:58:02.403Z,16.97
2018-12-29T13:00:35.267Z,15.80
2018-12-29T13:03:05.802Z,14.83
2018-12-29T13:05:34.853Z,15.33
2018-12-29T13:08:04.505Z,15.13
2018-12-29T13:10:33.752Z,16.53
2018-12-29T13:13:03.842Z,16.20
2018-12-29T13:15:32.738Z,15.40
2018-12-29T13:18:01.710Z,15.87
2018-12-29T13:20:30.657Z,15.60
2018-12-29T13:23:00.130Z,16.73
2018-12-29T13:25:29.068Z,17.30
2018-12-29T13:27:58.018Z,16.60
2018-12-29T13:30:27.156Z,16.07
2018-12-29T13:32:56.243Z,17.00
2018-12-29T13:35:25.304Z,15.63
2018-12-29T13:37:54.262Z,15.40
2018-12-29T13:40:23.318Z,15.47
2018-12-29T13:42:52.478Z,16.47
2018-12-29T13:45:21.412Z,15.27
2018-12-29T13:47:52.502Z,14.57
2018-12-29T13:50:22.164Z,14.80
2018-12-29T13:52:52.791Z,14.20
2018-12-29T13:55:22.385Z,15.47
2018-12-29T13:57:51.649Z,16.13
2018-12-29T14:00:20.587Z,15.43
2018-12-29T14:02:50.133Z,16.13
2018-12-29T14:05:19.072Z,15.63
2018-12-29T14:07:48.393Z,16.10
2018-12-29T14:10:17.359Z,16.13
2018-12-29T14:12:46.306Z,16.23
2018-12-29T14:15:15.245Z,17.03
2018-12-29T14:17:44.209Z,17.63
2018-12-29T14:20:13.243Z,16.33
2018-12-29T14:22:42.251Z,19.43
2018-12-29T14:25:11.211Z,16.63
2018-12-29T14:27:40.133Z,18.90
2018-12-29T14:30:09.386Z,16.90
2018-12-29T14:32:38.324Z,16.97
2018-12-29T14:35:07.345Z,17.57
2018-12-29T14:37:36.303Z,16.17
2018-12-29T14:40:05.542Z,17.10
2018-12-29T14:42:34.677Z,22.33
2018-12-29T14:45:03.817Z,19.00
2018-12-29T14:47:33.177Z,16.13
2018-12-29T14:50:02.160Z,17.77
2018-12-29T14:52:31.175Z,16.03
2018-12-29T14:55:00.169Z,14.90
2018-12-29T14:57:29.049Z,15.70
2018-12-29T14:59:58.424Z,14.10
2018-12-29T15:02:27.409Z,15.60
2018-12-29T15:04:56.401Z,15.03
2018-12-29T15:07:25.442Z,14.43
2018-12-29T15:09:54.588Z,14.13
2018-12-29T15:12:23.681Z,14.30
2018-12-29T15:14:53.262Z,15.30
2018-12-29T15:17:22.275Z,15.17
2018-12-29T15:19:51.359Z,14.97
2018-12-29T15:22:20.326Z,16.57
2018-12-29T15:24:49.575Z,15.43
2018-12-29T15:27:18.590Z,16.13
2018-12-29T15:29:47.534Z,16.20
2018-12-29T15:32:17.230Z,15.97
2018-12-29T15:34:46.311Z,16.10
2018-12-29T15:37:15.377Z,17.30
2018-12-29T15:39:44.323Z,16.20
2018-12-29T15:42:13.515Z,17.50
2018-12-29T15:44:42.459Z,16.90
2018-12-29T15:47:11.523Z,16.43
2018-12-29T15:49:40.457Z,16.20
2018-12-29T15:52:09.506Z,19.43
2018-12-29T15:54:39.027Z,15.63
2018-12-29T15:57:07.993Z,15.00
2018-12-29T15:59:37.124Z,15.17
2018-12-29T16:02:06.152Z,13.80
2018-12-29T16:04:35.670Z,14.93
2018-12-29T16:07:04.871Z,14.47
2018-12-29T16:09:35.034Z,14.03
2018-12-29T16:12:05.142Z,13.10
2018-12-29T16:14:35.481Z,12.93
2018-12-29T16:17:05.044Z,13.40
2018-12-29T16:19:34.388Z,13.30
2018-12-29T16:22:03.505Z,13.63
2018-12-29T16:24:33.150Z,13.10
2018-12-29T16:27:02.409Z,13.13
2018-12-29T16:29:31.327Z,13.13
2018-12-29T16:32:00.370Z,12.77
2018-12-29T16:34:29.293Z,12.73
2018-12-29T16:36:58.519Z,12.73
2018-12-29T16:39:28.024Z,13.20
2018-12-29T16:41:57.033Z,12.07
2018-12-29T16:44:28.363Z,12.90
2018-12-29T16:46:57.290Z,12.53
2018-12-29T16:49:27.059Z,13.10
2018-12-29T16:51:56.307Z,12.97
2018-12-29T16:54:25.616Z,12.87
2018-12-29T16:56:54.641Z,12.90
2018-12-29T16:59:24.090Z,12.53
2018-12-29T17:01:53.021Z,12.67
2018-12-29T17:04:22.061Z,12.00
2018-12-29T17:06:51.013Z,11.63
2018-12-29T17:09:20.623Z,11.33
2018-12-29T17:11:52.544Z,11.87
2018-12-29T17:14:20.225Z,11.13
2018-12-29T17:16:49.261Z,11.73
2018-12-29T17:19:18.503Z,11.50
2018-12-29T17:21:47.485Z,10.83
2018-12-29T17:24:16.426Z,11.27
2018-12-29T17:26:45.358Z,11.13
2018-12-29T17:29:14.638Z,11.93
2018-12-29T17:31:43.575Z,11.70
2018-12-29T17:34:12.554Z,11.77
2018-12-29T17:36:41.947Z,11.97
2018-12-29T17:39:11.349Z,12.60
2018-12-29T17:41:40.274Z,12.80
2018-12-29T17:44:09.272Z,12.47
2018-12-29T17:46:38.258Z,11.97
2018-12-29T17:49:07.705Z,13.00
2018-12-29T17:51:36.636Z,13.07
2018-12-29T17:54:05.668Z,13.77
2018-12-29T17:56:35.297Z,13.37
2018-12-29T17:59:04.546Z,14.30
2018-12-29T18:01:33.457Z,14.23
2018-12-29T18:04:02.403Z,12.70
2018-12-29T18:06:31.325Z,14.30
2018-12-29T18:09:00.475Z,13.57
2018-12-29T18:11:29.466Z,14.00
2018-12-29T18:13:58.494Z,14.30
2018-12-29T18:16:27.517Z,14.33
2018-12-29T18:18:56.478Z,14.43
2018-12-29T18:21:25.812Z,14.47
2018-12-29T18:23:55.070Z,15.13
2018-12-29T18:26:24.182Z,15.03
2018-12-29T18:28:54.503Z,14.23
2018-12-29T18:31:23.501Z,14.23
2018-12-29T18:33:52.887Z,15.30
2018-12-29T18:36:21.824Z,15.33
2018-12-29T18:38:50.873Z,15.83
2018-12-29T18:41:20.119Z,15.30
2018-12-29T18:43:49.053Z,15.53
2018-12-29T18:46:18.066Z,16.03
2018-12-29T18:48:47.317Z,15.27
2018-12-29T18:51:16.368Z,16.07
2018-12-29T18:53:46.018Z,15.20
2018-12-29T18:56:14.971Z,14.03
2018-12-29T18:58:43.925Z,14.93
2018-12-29T19:01:14.271Z,15.23
2018-12-29T19:03:43.511Z,14.73
2018-12-29T19:06:12.458Z,14.60
2018-12-29T19:08:41.777Z,13.63
2018-12-29T19:11:10.730Z,15.13
2018-12-29T19:13:39.664Z,13.90
2018-12-29T19:16:08.877Z,14.00
2018-12-29T19:18:41.410Z,14.43
2018-12-29T19:21:08.458Z,14.97
2018-12-29T19:23:37.879Z,14.30
2018-12-29T19:26:08.318Z,15.60
2018-12-29T19:28:37.445Z,15.90
2018-12-29T19:31:06.385Z,15.80
2018-12-29T19:33:35.615Z,14.87
2018-12-29T19:36:04.643Z,15.57
2018-12-29T19:38:33.605Z,14.80
2018-12-29T19:41:02.586Z,15.33
2018-12-29T19:43:32.060Z,15.50
2018-12-29T19:46:01.565Z,15.43
2018-12-29T19:48:30.485Z,15.40
2018-12-29T19:50:59.427Z,15.73
2018-12-29T19:53:28.916Z,15.70
2018-12-29T19:55:57.875Z,15.80
2018-12-29T19:58:26.913Z,15.47
2018-12-29T20:00:55.851Z,15.50
2018-12-29T20:03:24.786Z,14.87
2018-12-29T20:05:53.901Z,15.37
2018-12-29T20:08:22.849Z,15.70
2018-12-29T20:10:52.479Z,15.30
2018-12-29T20:13:21.430Z,15.37
2018-12-29T20:15:50.353Z,15.80
2018-12-29T20:18:19.598Z,16.23
2018-12-29T20:20:48.532Z,15.27
2018-12-29T20:23:17.750Z,14.67
2018-12-29T20:25:47.019Z,14.97
2018-12-29T20:28:15.946Z,15.97
2018-12-29T20:30:45.083Z,14.80
2018-12-29T20:33:15.469Z,14.20
2018-12-29T20:35:44.471Z,15.50
2018-12-29T20:38:13.486Z,15.23
2018-12-29T20:40:42.416Z,14.97
2018-12-29T20:43:11.992Z,15.13
2018-12-29T20:45:40.986Z,14.93
2018-12-29T20:48:10.448Z,15.20
2018-12-29T20:50:39.375Z,13.93
2018-12-29T20:53:08.595Z,13.60
2018-12-29T20:55:39.599Z,12.63
2018-12-29T20:58:08.899Z,12.97
2018-12-29T21:00:38.475Z,12.83
2018-12-29T21:03:07.482Z,11.97
2018-12-29T21:05:36.415Z,12.00
2018-12-29T21:08:05.941Z,10.90
2018-12-29T21:10:34.954Z,11.07
2018-12-29T21:13:04.273Z,10.40
2018-12-29T21:15:33.218Z,10.97
2018-12-29T21:18:02.145Z,10.70
2018-12-29T21:20:31.387Z,10.13
2018-12-29T21:23:00.306Z,10.87
2018-12-29T21:25:29.241Z,11.20
2018-12-29T21:27:58.550Z,10.47
2018-12-29T21:30:27.880Z,11.03
2018-12-29T21:32:56.802Z,11.00
2018-12-29T21:35:25.855Z,10.57
2018-12-29T21:37:55.330Z,10.23
2018-12-29T21:40:24.636Z,9.70
2018-12-29T21:42:54.403Z,9.47
2018-12-29T21:45:24.167Z,10.13
2018-12-29T21:47:53.175Z,9.77
2018-12-29T21:50:25.666Z,9.63
2018-12-29T21:52:53.139Z,10.73
2018-12-29T21:55:22.095Z,9.93
2018-12-29T21:57:51.344Z,10.00
2018-12-29T22:00:20.590Z,10.47
2018-12-29T22:02:49.808Z,10.93
2018-12-29T22:05:18.766Z,10.30
2018-12-29T22:07:47.777Z,10.70
2018-12-29T22:10:16.764Z,11.27
2018-12-29T22:12:46.025Z,11.00
2018-12-29T22:15:15.244Z,10.87
2018-12-29T22:17:44.179Z,11.43
2018-12-29T22:20:13.641Z,11.90
2018-12-29T22:22:42.639Z,10.93
2018-12-29T22:25:11.864Z,11.83
2018-12-29T22:27:41.077Z,11.73
2018-12-29T22:30:10.166Z,11.77
2018-12-29T22:32:39.982Z,11.47
2018-12-29T22:35:08.990Z,10.97
2018-12-29T22:37:38.295Z,11.60
2018-12-29T22:40:07.381Z,11.87
2018-12-29T22:42:36.336Z,11.37
2018-12-29T22:45:05.502Z,11.07
2018-12-29T22:47:37.655Z,11.37
2018-12-29T22:50:07.702Z,11.47
2018-12-29T22:52:36.713Z,10.87
2018-12-29T22:55:08.349Z,10.27
2018-12-29T22:57:38.170Z,10.80
2018-12-29T23:00:10.124Z,10.23
2018-12-29T23:02:39.165Z,11.13
2018-12-29T23:05:08.214Z,10.80
2018-12-29T23:07:37.225Z,10.90
2018-12-29T23:10:06.241Z,10.53
2018-12-29T23:12:35.226Z,10.10
2018-12-29T23:15:04.766Z,10.30
2018-12-29T23:17:33.719Z,10.73
2018-12-29T23:20:02.744Z,11.13
2018-12-29T23:22:32.127Z,11.40
2018-12-29T23:25:01.098Z,11.37
2018-12-29T23:27:31.122Z,11.03
2018-12-29T23:30:00.677Z,11.33
2018-12-29T23:32:29.618Z,11.00
2018-12-29T23:34:58.541Z,10.83
2018-12-29T23:37:27.794Z,11.50
2018-12-29T23:39:57.225Z,10.70
2018-12-29T23:42:26.514Z,11.77
2018-12-29T23:44:55.480Z,11.87
2018-12-29T23:47:24.821Z,10.23
2018-12-29T23:49:53.774Z,11.97
2018-12-29T23:52:22.986Z,11.37
2018-12-29T23:54:51.917Z,11.60
2018-12-29T23:57:20.862Z,11.43
2018-12-29T23:59:49.817Z,11.93
